Time;durP1;ratioP1;P1;durP2;ratioP2;P2;SDS_P1;SDS_P2;PMS_P1;PMS_P2;Temp;Humidity;BMP_temperature;BMP_pressure;BME280_temperature;BME280_humidity;BME280_pressure;Samples;Min_cycle;Max_cycle;Signal;HPM_P1;HPM_P2
2022/11/25 00:01:39;;;;;;;;;28.80;28.80;;;;;10.23;62.93;99376.16;5068322;28;8855;-72
2022/11/25 00:04:07;;;;;;;;;36.00;31.00;;;;;10.20;62.60;99383.97;5068299;28;8877;-75
2022/11/25 00:06:36;;;;;;;;;29.80;26.40;;;;;10.12;62.91;99383.97;5067753;28;8842;-73
2022/11/25 00:09:07;;;;;;;;;25.60;24.00;;;;;9.89;63.67;99384.00;5083339;28;8852;-76
2022/11/25 00:11:38;;;;;;;;;28.40;26.40;;;;;9.80;64.32;99397.03;5074178;28;8870;-77
2022/11/25 00:14:10;;;;;;;;;26.80;26.80;;;;;9.79;64.17;99390.06;5083160;28;9608;-73
2022/11/25 00:16:38;;;;;;;;;23.20;22.20;;;;;9.57;65.00;99390.06;5051592;28;8978;-74
2022/11/25 00:19:15;;;;;;;;;22.20;19.80;;;;;9.44;65.66;99388.31;5081982;28;8840;-77
2022/11/25 00:21:44;;;;;;;;;30.00;26.00;;;;;9.69;64.70;99389.22;5069942;28;8840;-76
2022/11/25 00:24:15;;;;;;;;;30.40;27.60;;;;;9.59;65.51;99397.88;5076081;28;8866;-75
2022/11/25 00:26:45;;;;;;;;;28.20;26.20;;;;;9.46;65.75;99387.44;5081819;28;8846;-74
2022/11/25 00:29:13;;;;;;;;;31.80;28.20;;;;;9.62;65.37;99396.16;5076670;28;8855;-76
2022/11/25 00:31:42;;;;;;;;;28.20;25.60;;;;;9.85;64.53;99390.06;5048928;28;8870;-76
2022/11/25 00:34:13;;;;;;;;;34.80;29.00;;;;;9.63;65.18;99391.81;5065449;28;8898;-74
2022/11/25 00:36:42;;;;;;;;;30.00;27.40;;;;;9.31;66.36;99390.88;5066597;28;8836;-75
2022/11/25 00:39:13;;;;;;;;;24.80;22.80;;;;;9.09;67.14;99397.78;5050768;28;8836;-75
2022/11/25 00:44:35;;;;;;;;;26.20;25.80;;;;;9.10;67.38;99398.66;5072815;28;8847;-75
2022/11/25 00:47:08;;;;;;;;;29.00;26.80;;;;;8.91;68.35;99401.19;5072334;28;8905;-76
2022/11/25 00:49:37;;;;;;;;;22.80;20.40;;;;;8.73;68.99;99406.28;5067800;28;8949;-74
2022/11/25 00:52:07;;;;;;;;;27.60;23.40;;;;;8.85;69.00;99416.78;5048640;28;8852;-74
2022/11/25 00:54:35;;;;;;;;;23.60;21.80;;;;;8.88;68.76;99414.16;5048383;28;8851;-73
2022/11/25 00:57:04;;;;;;;;;33.00;29.20;;;;;8.95;68.86;99422.88;5029733;28;8832;-74
2022/11/25 00:59:34;;;;;;;;;27.80;24.00;;;;;8.98;68.11;99421.16;5044942;28;8873;-76
2022/11/25 01:02:03;;;;;;;;;24.20;23.40;;;;;9.22;67.17;99421.22;5028995;28;9028;-73
2022/11/25 01:04:32;;;;;;;;;25.40;22.20;;;;;8.82;68.82;99423.69;5048273;28;8870;-74
2022/11/25 01:07:01;;;;;;;;;34.40;29.20;;;;;8.91;69.05;99424.59;5083162;28;8858;-74
2022/11/25 01:09:30;;;;;;;;;28.00;25.20;;;;;8.83;69.13;99426.28;5084900;28;8870;-75
2022/11/25 01:11:59;;;;;;;;;26.00;25.00;;;;;8.69;69.61;99427.94;5120551;28;8852;-76
2022/11/25 01:14:28;;;;;;;;;29.00;26.40;;;;;8.92;69.18;99428.03;5056903;28;9008;-74
2022/11/25 01:16:57;;;;;;;;;28.00;24.20;;;;;8.93;68.58;99433.25;5066080;28;8843;-75
2022/11/25 01:19:26;;;;;;;;;24.60;24.20;;;;;8.87;69.04;99446.25;5067067;28;9600;-75
2022/11/25 01:21:54;;;;;;;;;27.20;25.80;;;;;8.65;70.17;99444.41;5049638;28;8846;-74
2022/11/25 01:24:25;;;;;;;;;28.20;25.20;;;;;8.65;70.52;99453.06;5066073;28;8838;-74
2022/11/25 01:26:54;;;;;;;;;38.80;30.00;;;;;8.63;70.25;99453.91;5016945;28;8850;-74
2022/11/25 01:29:24;;;;;;;;;26.60;25.40;;;;;8.74;69.81;99453.09;5046548;28;8905;-74
2022/11/25 01:31:56;;;;;;;;;26.00;25.80;;;;;8.87;69.51;99458.38;5069212;28;8889;-74
2022/11/25 01:34:27;;;;;;;;;28.40;25.80;;;;;8.63;70.22;99454.78;5051831;28;8948;-75
2022/11/25 01:36:57;;;;;;;;;23.00;20.40;;;;;8.57;71.10;99458.22;5081907;28;8858;-74
2022/11/25 01:39:27;;;;;;;;;29.40;25.20;;;;;8.55;71.35;99459.94;5089094;28;8872;-74
2022/11/25 01:42:01;;;;;;;;;24.20;23.00;;;;;8.58;71.12;99454.75;5070154;28;8963;-74
2022/11/25 01:44:32;;;;;;;;;29.40;26.00;;;;;8.48;71.87;99458.16;5066426;28;9708;-74
2022/11/25 01:47:05;;;;;;;;;23.00;19.40;;;;;8.53;71.38;99458.19;5065546;28;8862;-75
2022/11/25 01:49:41;;;;;;;;;16.00;15.80;;;;;8.33;71.84;99471.00;5066045;28;8859;-76
2022/11/25 01:52:16;;;;;;;;;24.40;21.40;;;;;8.44;71.58;99471.97;5065750;28;9001;-73
2022/11/25 01:54:50;;;;;;;;;23.60;23.20;;;;;8.54;71.30;99479.00;5082550;28;8874;-75
2022/11/25 01:57:24;;;;;;;;;27.80;25.20;;;;;8.79;70.66;99471.34;5065584;28;8858;-75
2022/11/25 01:59:57;;;;;;;;;26.80;24.20;;;;;8.84;70.58;99471.34;5048373;28;8853;-73
2022/11/25 02:02:27;;;;;;;;;29.60;27.40;;;;;9.25;68.17;99468.06;5099058;28;8949;-76
2022/11/25 02:04:58;;;;;;;;;23.80;23.40;;;;;9.51;66.93;99469.03;5075267;28;8932;-74
2022/11/25 02:07:33;;;;;;;;;28.20;23.80;;;;;9.72;66.22;99470.78;5068718;28;8882;-75
2022/11/25 02:10:07;;;;;;;;;28.40;26.80;;;;;9.80;65.03;99470.81;5088133;28;8859;-76
2022/11/25 02:12:38;;;;;;;;;32.00;25.40;;;;;9.81;65.28;99462.13;5089627;28;8941;-73
2022/11/25 02:15:08;;;;;;;;;27.80;25.60;;;;;9.89;64.77;99465.63;5072702;28;8851;-74
2022/11/25 02:17:38;;;;;;;;;33.40;32.00;;;;;9.92;64.68;99464.72;5090656;28;8859;-75
2022/11/25 02:20:12;;;;;;;;;33.20;30.00;;;;;9.51;66.17;99469.03;5090866;28;8844;-75
2022/11/25 02:22:52;;;;;;;;;36.40;29.20;;;;;9.54;65.95;99474.22;5088594;28;8852;-74
2022/11/25 02:25:24;;;;;;;;;39.40;30.80;;;;;9.17;67.72;99475.84;5091127;28;8848;-75
2022/11/25 02:28:00;;;;;;;;;33.20;31.80;;;;;9.11;68.14;99486.22;5089633;28;8848;-75
2022/11/25 02:30:28;;;;;;;;;34.20;33.00;;;;;8.67;69.74;99486.84;5058563;28;8847;-72
2022/11/25 02:32:58;;;;;;;;;32.40;29.40;;;;;8.94;68.96;99480.94;5106481;28;8879;-74
2022/11/25 02:35:33;;;;;;;;;36.00;30.40;;;;;9.35;67.04;99483.72;5103835;28;8974;-74
2022/11/25 02:38:10;;;;;;;;;30.40;28.40;;;;;9.48;66.44;99484.63;5089273;28;8859;-75
2022/11/25 02:40:46;;;;;;;;;27.00;24.80;;;;;9.79;65.48;99478.59;5089261;28;8828;-74
2022/11/25 02:43:15;;;;;;;;;36.80;30.80;;;;;9.85;64.96;99483.81;5037922;28;9978;-74
2022/11/25 02:45:52;;;;;;;;;35.20;34.80;;;;;9.93;64.71;99485.59;5072522;28;8859;-74
2022/11/25 02:48:21;;;;;;;;;32.80;31.20;;;;;10.07;63.94;99485.56;5076535;28;9007;-74
2022/11/25 02:51:12;;;;;;;;;30.00;27.00;;;;;10.13;63.66;99475.19;5085571;28;8912;-77
2022/11/25 02:53:42;;;;;;;;;37.00;32.40;;;;;10.23;63.33;99480.41;5080201;28;8940;-76
2022/11/25 02:56:13;;;;;;;;;34.40;30.40;;;;;9.84;64.93;99488.16;5080188;28;8859;-75
2022/11/25 02:58:42;;;;;;;;;36.20;34.00;;;;;10.02;64.04;99487.34;5084087;28;8859;-73
2022/11/25 03:01:11;;;;;;;;;34.40;29.60;;;;;10.32;63.28;99486.50;5048768;28;8866;-74
2022/11/25 03:03:40;;;;;;;;;32.80;30.00;;;;;10.46;62.51;99488.22;5072703;28;8978;-75
2022/11/25 03:06:09;;;;;;;;;31.80;29.60;;;;;10.52;62.60;99489.06;5052278;28;8870;-76
2022/11/25 03:08:38;;;;;;;;;28.00;26.80;;;;;10.52;62.53;99485.59;5101253;28;9695;-76
2022/11/25 03:11:12;;;;;;;;;31.20;29.20;;;;;10.58;61.81;99487.34;5051634;28;8850;-75
2022/11/25 03:13:41;;;;;;;;;33.80;32.00;;;;;10.77;62.02;99488.16;5051837;28;8946;-76
2022/11/25 03:16:10;;;;;;;;;28.80;26.60;;;;;10.83;61.38;99489.03;5051365;28;9653;-74
2022/11/25 03:18:39;;;;;;;;;24.60;23.40;;;;;10.30;62.48;99497.75;5069537;28;8863;-76
2022/11/25 03:21:07;;;;;;;;;27.60;24.60;;;;;10.42;62.35;99497.78;5070778;28;8850;-74
2022/11/25 03:23:36;;;;;;;;;35.40;34.60;;;;;10.47;62.34;99498.66;5071734;28;8850;-75
2022/11/25 03:26:06;;;;;;;;;27.80;27.40;;;;;10.63;61.90;99491.66;5054647;28;8895;-73
2022/11/25 03:28:36;;;;;;;;;36.80;32.80;;;;;10.76;61.27;99497.75;5069748;28;8878;-74
2022/11/25 03:31:10;;;;;;;;;37.80;34.40;;;;;10.71;61.14;99504.69;5084739;28;8974;-75
2022/11/25 03:33:39;;;;;;;;;35.60;29.20;;;;;10.83;61.42;99503.78;5069574;28;8952;-75
2022/11/25 03:36:08;;;;;;;;;31.60;30.00;;;;;10.81;60.72;99506.44;5069885;28;8851;-74
2022/11/25 03:38:36;;;;;;;;;36.00;33.50;;;;;10.24;62.74;99513.38;5068159;28;8858;-74
2022/11/25 03:41:06;;;;;;;;;33.00;30.40;;;;;10.51;61.81;99507.34;5067615;28;8893;-74
2022/11/25 03:43:35;;;;;;;;;39.20;32.80;;;;;10.64;61.35;99513.41;5085029;28;8858;-75
2022/11/25 03:46:04;;;;;;;;;34.20;28.00;;;;;10.79;60.94;99513.38;5067759;28;8826;-74
2022/11/25 03:48:33;;;;;;;;;35.60;34.20;;;;;10.83;60.27;99525.56;5066524;28;8923;-75
2022/11/25 03:51:01;;;;;;;;;33.20;30.60;;;;;10.77;60.90;99529.91;5050171;28;9664;-74
2022/11/25 03:53:30;;;;;;;;;29.20;26.00;;;;;10.95;60.34;99526.41;5084127;28;8854;-76
2022/11/25 03:56:01;;;;;;;;;32.40;31.80;;;;;10.66;61.49;99520.38;5034833;28;9564;-74
2022/11/25 03:58:30;;;;;;;;;36.60;33.80;;;;;10.58;61.61;99529.06;5036413;28;8894;-75
2022/11/25 04:01:01;;;;;;;;;44.40;36.00;;;;;10.39;62.31;99533.41;5032250;28;8851;-76
2022/11/25 04:03:30;;;;;;;;;39.00;37.00;;;;;10.62;61.72;99533.41;5032379;28;8844;-74
2022/11/25 04:05:59;;;;;;;;;36.75;35.25;;;;;10.41;62.45;99537.75;5049128;28;8845;-75
2022/11/25 04:08:29;;;;;;;;;33.00;31.50;;;;;10.57;61.81;99546.44;5049222;28;8845;-76
2022/11/25 04:10:59;;;;;;;;;54.50;45.25;;;;;10.25;62.47;99547.28;5065962;28;8834;-76
2022/11/25 04:13:31;;;;;;;;;83.67;66.00;;;;;10.28;62.32;99547.28;5066603;28;8862;-75
2022/11/25 04:16:01;;;;;;;;;36.75;36.00;;;;;10.43;62.09;99550.78;5067214;28;9169;-75
2022/11/25 04:18:29;;;;;;;;;39.50;37.75;;;;;10.56;61.63;99544.69;5020121;28;8897;-73
2022/11/25 04:20:59;;;;;;;;;41.75;36.25;;;;;10.49;61.88;99549.06;5091867;28;8845;-77
2022/11/25 04:23:28;;;;;;;;;40.75;38.25;;;;;10.64;61.61;99544.69;5089174;28;8861;-74
2022/11/25 04:26:01;;;;;;;;;43.75;37.50;;;;;10.65;61.21;99554.25;5083675;28;8942;-75
2022/11/25 04:28:35;;;;;;;;;38.50;35.25;;;;;10.49;61.72;99551.66;5082667;28;8853;-74
2022/11/25 04:31:08;;;;;;;;;37.25;34.75;;;;;10.71;60.98;99557.72;5064275;28;8843;-75
2022/11/25 04:33:40;;;;;;;;;36.25;33.00;;;;;10.77;60.44;99564.66;5048292;28;8910;-75
2022/11/25 04:36:09;;;;;;;;;37.25;35.50;;;;;10.35;61.92;99569.03;5049220;28;8854;-75
2022/11/25 04:38:38;;;;;;;;;41.00;37.25;;;;;10.56;61.58;99568.16;5100363;28;8924;-75
2022/11/25 04:41:08;;;;;;;;;39.75;36.50;;;;;10.65;61.21;99564.69;5049962;28;8858;-75
2022/11/25 04:43:42;;;;;;;;;43.75;39.75;;;;;10.76;60.95;99570.78;5059129;28;8848;-76
2022/11/25 04:46:17;;;;;;;;;46.50;39.25;;;;;10.87;61.02;99565.56;5068283;28;8861;-73
2022/11/25 04:48:50;;;;;;;;;41.50;37.25;;;;;10.44;61.89;99569.03;5077118;28;9597;-74
2022/11/25 04:51:20;;;;;;;;;38.25;35.50;;;;;10.66;61.08;99572.53;5048299;28;8848;-75
2022/11/25 04:53:52;;;;;;;;;33.80;32.00;;;;;10.52;61.24;99576.84;5065007;28;8941;-74
2022/11/25 04:56:23;;;;;;;;;35.25;34.75;;;;;10.27;62.15;99583.78;5064770;28;8864;-76
2022/11/25 05:01:46;;;;;;;;;53.75;47.00;;;;;10.58;61.29;99587.28;5064812;28;8863;-75
2022/11/25 05:04:33;;;;;;;;;38.00;35.75;;;;;10.73;61.11;99587.28;5064412;28;8876;-74
2022/11/25 05:07:03;;;;;;;;;41.25;38.75;;;;;10.79;60.55;99596.84;5015173;28;8852;-75
2022/11/25 05:09:31;;;;;;;;;58.50;47.50;;;;;10.90;59.95;99589.00;5034849;28;9659;-75
2022/11/25 05:12:16;;;;;;;;;42.25;38.25;;;;;10.53;61.53;99589.91;5059581;28;8872;-74
2022/11/25 05:14:44;;;;;;;;;33.60;31.80;;;;;10.56;61.15;99594.25;5101948;28;8870;-74
2022/11/25 05:17:17;;;;;;;;;41.00;37.25;;;;;10.84;60.45;99589.88;5100080;28;8838;-73
2022/11/25 05:19:47;;;;;;;;;46.50;40.25;;;;;10.84;60.75;99600.31;5068865;28;8840;-74
2022/11/25 05:22:18;;;;;;;;;38.80;36.20;;;;;10.82;60.70;99601.19;5082641;28;8975;-75
2022/11/25 05:24:47;;;;;;;;;33.80;31.00;;;;;10.70;61.34;99608.16;5029402;28;8858;-75
2022/11/25 05:27:17;;;;;;;;;37.40;32.20;;;;;10.56;61.38;99612.50;5049099;28;8854;-73
2022/11/25 05:29:46;;;;;;;;;34.00;32.20;;;;;10.61;61.66;99623.81;5075538;28;8932;-75
2022/11/25 05:32:25;;;;;;;;;35.80;32.00;;;;;10.73;61.53;99620.31;5086160;28;8890;-75
2022/11/25 05:34:56;;;;;;;;;32.20;30.80;;;;;10.70;61.19;99631.63;5085801;28;9565;-75
2022/11/25 05:37:25;;;;;;;;;35.60;33.60;;;;;10.87;60.39;99630.78;5085630;28;8917;-73
2022/11/25 05:40:03;;;;;;;;;36.00;32.80;;;;;10.80;61.04;99637.72;5085010;28;8898;-74
2022/11/25 05:42:52;;;;;;;;;39.60;34.60;;;;;10.60;62.03;99642.91;5065689;28;8853;-72
2022/11/25 05:45:21;;;;;;;;;42.75;37.25;;;;;10.47;62.55;99643.75;5069259;28;8858;-76
2022/11/25 05:47:51;;;;;;;;;32.50;31.00;;;;;10.71;61.24;99643.78;5069113;28;8850;-75
2022/11/25 05:50:23;;;;;;;;;37.20;36.60;;;;;10.60;61.56;99644.66;5019906;28;8874;-75
2022/11/25 05:53:16;;;;;;;;;32.40;32.20;;;;;10.81;61.19;99649.91;5102916;28;8865;-74
2022/11/25 05:55:54;;;;;;;;;30.20;29.80;;;;;10.36;62.96;99656.81;5069826;28;8858;-75
2022/11/25 05:58:37;;;;;;;;;34.00;34.00;;;;;10.23;63.25;99655.88;5092097;28;8847;-76
2022/11/25 06:01:09;;;;;;;;;34.00;32.40;;;;;10.23;63.62;99658.47;5039029;28;8860;-75
2022/11/25 06:03:40;;;;;;;;;37.80;35.40;;;;;10.10;63.72;99665.38;5074049;28;8939;-75
2022/11/25 06:06:10;;;;;;;;;35.60;31.80;;;;;10.15;63.60;99668.88;5070930;28;8882;-73
2022/11/25 06:08:40;;;;;;;;;39.00;34.50;;;;;10.28;62.91;99663.69;5085373;28;8855;-76
2022/11/25 06:11:11;;;;;;;;;35.00;34.25;;;;;10.01;63.69;99661.88;5046508;28;8879;-74
2022/11/25 06:13:40;;;;;;;;;38.00;34.25;;;;;9.56;65.60;99678.19;5017162;28;8851;-73
2022/11/25 06:16:11;;;;;;;;;29.50;28.75;;;;;9.52;65.73;99679.00;5066717;28;9974;-75
2022/11/25 06:18:41;;;;;;;;;35.75;33.50;;;;;9.24;67.07;99682.28;5065425;28;8846;-73
2022/11/25 06:21:14;;;;;;;;;38.75;32.75;;;;;8.73;69.18;99687.06;5068185;28;8884;-74
2022/11/25 06:23:45;;;;;;;;;33.75;31.75;;;;;8.56;69.91;99681.72;5066739;28;8921;-75
2022/11/25 06:26:18;;;;;;;;;26.00;19.50;;;;;8.17;72.04;99696.88;5000406;28;8884;-74
2022/11/25 06:28:49;;;;;;;;;43.75;38.50;;;;;8.24;71.87;99691.75;5014963;28;8842;-75
2022/11/25 06:31:19;;;;;;;;;42.50;35.25;;;;;8.17;72.38;99703.81;5052297;28;8911;-76
2022/11/25 06:34:09;;;;;;;;;36.75;32.00;;;;;7.82;73.46;99701.63;5066860;28;8860;-75
2022/11/25 06:36:39;;;;;;;;;41.75;38.25;;;;;7.81;73.68;99705.94;5034854;28;8955;-74
2022/11/25 06:39:08;;;;;;;;;44.50;40.00;;;;;7.63;75.48;99712.63;5070456;28;9620;-74
2022/11/25 06:41:37;;;;;;;;;44.00;41.25;;;;;7.66;75.62;99721.31;5070740;28;8959;-76
2022/11/25 06:44:05;;;;;;;;;54.00;44.00;;;;;7.82;74.28;99719.78;5070716;28;9606;-75
2022/11/25 06:46:34;;;;;;;;;48.25;42.00;;;;;7.71;75.03;99727.47;5072655;28;8966;-75
2022/11/25 06:49:03;;;;;;;;;51.25;45.00;;;;;7.71;75.41;99732.66;5089404;28;8879;-76
2022/11/25 06:51:33;;;;;;;;;49.50;42.75;;;;;7.88;74.86;99732.00;5089349;28;9561;-75
2022/11/25 06:54:02;;;;;;;;;47.75;42.00;;;;;7.64;75.55;99735.09;5076894;28;8843;-74
2022/11/25 06:56:30;;;;;;;;;50.00;45.25;;;;;7.81;75.37;99737.09;5069362;28;9024;-73
2022/11/25 06:58:59;;;;;;;;;45.50;39.50;;;;;7.64;75.29;99742.91;5083164;28;8843;-74
2022/11/25 07:01:29;;;;;;;;;51.00;44.25;;;;;7.67;75.60;99743.81;5086743;27;8836;-77
2022/11/25 07:04:00;;;;;;;;;49.00;41.25;;;;;7.93;74.33;99738.13;5102778;28;8912;-74
2022/11/25 07:06:30;;;;;;;;;45.50;40.25;;;;;7.78;76.48;99747.44;5072957;28;8893;-69
2022/11/25 07:09:01;;;;;;;;;46.25;41.75;;;;;7.81;76.32;99757.00;5068503;28;8846;-69
2022/11/25 07:11:32;;;;;;;;;47.50;41.25;;;;;7.95;75.74;99752.84;5085910;28;8848;-75
2022/11/25 07:14:03;;;;;;;;;43.67;39.33;;;;;7.84;75.49;99763.97;5088251;28;8854;-74
2022/11/25 07:16:33;;;;;;;;;50.25;43.00;;;;;8.02;74.77;99764.22;5047810;28;9711;-75
2022/11/25 07:19:03;;;;;;;;;39.50;35.00;;;;;7.94;74.69;99769.31;5089795;28;8901;-78
2022/11/25 07:21:33;;;;;;;;;43.75;38.50;;;;;8.17;74.06;99761.81;5073389;28;8847;-78
2022/11/25 07:24:06;;;;;;;;;49.00;42.50;;;;;8.13;73.30;99764.38;5072867;28;8864;-75
2022/11/25 07:26:37;;;;;;;;;47.25;42.00;;;;;8.25;73.22;99768.84;5090759;28;9593;-78
2022/11/25 07:29:09;;;;;;;;;52.50;43.25;;;;;8.28;73.17;99769.75;5090156;28;8856;-75
2022/11/25 07:31:58;;;;;;;;;49.00;43.75;;;;;8.38;72.25;99763.78;5105609;28;9648;-76
2022/11/25 07:34:27;;;;;;;;;49.25;43.25;;;;;8.44;72.50;99759.56;5069843;28;8863;-76
2022/11/25 07:36:55;;;;;;;;;54.75;43.75;;;;;8.21;72.88;99770.53;5087971;28;8879;-76
2022/11/25 07:39:25;;;;;;;;;57.50;46.25;;;;;8.30;72.80;99773.25;5121536;27;8887;-75
2022/11/25 07:41:54;;;;;;;;;53.50;46.25;;;;;8.47;72.35;99775.19;5121904;27;8883;-75
2022/11/25 07:44:23;;;;;;;;;52.50;44.50;;;;;8.31;72.85;99782.75;5121791;27;8849;-77
2022/11/25 07:47:12;;;;;;;;;51.50;43.75;;;;;8.39;72.83;99778.53;5067774;28;8846;-76
2022/11/25 07:49:41;;;;;;;;;59.50;48.00;;;;;8.52;71.92;99784.78;5070752;28;8840;-78
2022/11/25 07:52:09;;;;;;;;;50.75;45.00;;;;;8.55;71.91;99783.94;5086934;28;8862;-74
2022/11/25 07:54:40;;;;;;;;;56.50;44.50;;;;;8.31;72.97;99781.88;5093703;28;8858;-77
2022/11/25 07:57:08;;;;;;;;;54.50;46.25;;;;;8.31;72.60;99790.56;5104817;28;8980;-77
2022/11/25 07:59:40;;;;;;;;;62.00;48.75;;;;;8.34;72.88;99785.41;5055790;28;8892;-77
2022/11/25 08:02:09;;;;;;;;;59.75;47.00;;;;;8.53;72.01;99791.72;5085916;28;9089;-76
2022/11/25 08:04:38;;;;;;;;;59.50;49.00;;;;;8.32;72.48;99789.72;5085449;28;8856;-77
2022/11/25 08:07:07;;;;;;;;;53.75;45.75;;;;;8.54;71.92;99798.69;5114639;27;8866;-77
2022/11/25 08:09:35;;;;;;;;;44.75;41.00;;;;;8.33;72.71;99803.56;5057581;28;9005;-78
2022/11/25 08:12:05;;;;;;;;;58.00;48.25;;;;;8.52;72.00;99807.31;5046920;28;8898;-77
2022/11/25 08:14:34;;;;;;;;;57.00;49.25;;;;;8.67;71.27;99810.06;5041347;28;9044;-78
2022/11/25 08:17:04;;;;;;;;;60.00;47.25;;;;;8.64;71.98;99819.56;5032239;28;8918;-77
2022/11/25 08:19:34;;;;;;;;;63.25;50.00;;;;;8.50;72.05;99816.81;5015977;28;8852;-76
2022/11/25 08:22:05;;;;;;;;;52.75;45.50;;;;;8.74;70.96;99821.44;5031956;28;8860;-77
2022/11/25 08:24:33;;;;;;;;;56.25;47.00;;;;;8.94;70.44;99829.44;5016200;28;8856;-77
2022/11/25 08:27:02;;;;;;;;;52.50;43.25;;;;;8.89;70.57;99825.94;5031921;28;8856;-76
2022/11/25 08:29:32;;;;;;;;;47.25;41.00;;;;;8.77;70.89;99829.25;5061228;28;8952;-77
2022/11/25 08:32:01;;;;;;;;;54.25;45.00;;;;;8.93;70.52;99828.56;5047710;28;9059;-76
2022/11/25 08:34:36;;;;;;;;;43.50;37.50;;;;;9.00;70.24;99828.63;5045017;28;8846;-76
2022/11/25 08:37:06;;;;;;;;;49.75;44.25;;;;;8.93;70.50;99832.91;5049950;28;8874;-78
2022/11/25 08:39:34;;;;;;;;;49.50;43.25;;;;;8.88;71.15;99838.03;5025065;28;9010;-76
2022/11/25 08:42:20;;;;;;;;;45.00;40.50;;;;;9.00;70.65;99837.31;5076943;28;8904;-77
2022/11/25 08:44:54;;;;;;;;;38.00;34.75;;;;;9.52;68.58;99840.41;5081845;28;10121;-77
2022/11/25 08:47:23;;;;;;;;;51.50;44.00;;;;;9.03;70.49;99846.88;5069107;28;8923;-77
2022/11/25 08:49:52;;;;;;;;;35.00;34.75;;;;;9.40;69.11;99839.44;5104362;28;8883;-77
2022/11/25 08:52:21;;;;;;;;;48.50;40.75;;;;;9.26;70.04;99831.47;5103973;28;8872;-77
2022/11/25 08:54:50;;;;;;;;;49.75;42.50;;;;;9.09;70.12;99840.03;5079710;28;8862;-76
2022/11/25 08:57:19;;;;;;;;;55.75;45.25;;;;;9.17;70.38;99843.56;5079581;28;8951;-77
2022/11/25 08:59:47;;;;;;;;;46.50;39.25;;;;;9.17;69.62;99840.09;5076412;28;8882;-76
2022/11/25 09:02:18;;;;;;;;;46.50;40.50;;;;;9.40;68.80;99829.88;5088060;28;8880;-76
2022/11/25 09:04:47;;;;;;;;;50.00;41.50;;;;;9.45;68.40;99824.72;5082821;28;8848;-76
2022/11/25 09:07:16;;;;;;;;;46.25;39.50;;;;;9.70;66.92;99829.28;5086126;28;9623;-77
2022/11/25 09:09:45;;;;;;;;;44.50;39.25;;;;;9.72;65.68;99826.69;5074819;28;8866;-77
2022/11/25 09:12:14;;;;;;;;;37.40;34.00;;;;;9.61;66.07;99828.34;5102426;28;8896;-76
2022/11/25 09:14:42;;;;;;;;;31.00;27.80;;;;;9.23;66.67;99834.94;5069537;28;8845;-76
2022/11/25 09:17:12;;;;;;;;;31.60;31.60;;;;;9.43;67.00;99824.69;5100127;28;9731;-77
2022/11/25 09:19:42;;;;;;;;;26.60;24.40;;;;;9.15;66.35;99826.19;5071479;28;8855;-78
2022/11/25 09:22:11;;;;;;;;;27.80;25.20;;;;;9.22;66.50;99834.91;5076345;28;8962;-79
2022/11/25 09:24:40;;;;;;;;;38.75;36.75;;;;;9.45;66.26;99824.72;5085998;28;8843;-78
2022/11/25 09:27:09;;;;;;;;;38.80;34.00;;;;;9.63;65.30;99819.66;4989879;28;8853;-77
2022/11/25 09:29:38;;;;;;;;;40.80;35.80;;;;;10.19;64.57;99823.50;5102810;28;9504;-79
2022/11/25 09:32:07;;;;;;;;;39.00;36.40;;;;;10.89;62.97;99814.25;5072129;28;8889;-77
2022/11/25 09:34:36;;;;;;;;;39.80;31.20;;;;;11.14;61.29;99802.13;5084139;28;8976;-77
2022/11/25 09:37:06;;;;;;;;;28.40;28.40;;;;;11.14;60.90;99809.09;5037326;28;8816;-77
2022/11/25 09:39:35;;;;;;;;;32.40;27.20;;;;;10.79;59.99;99805.50;5039167;28;8868;-78
2022/11/25 09:48:24;;;;;;;;;16.60;16.60;;;;;10.21;60.66;99832.22;5073625;28;8816;-77
2022/11/25 09:51:01;;;;;;;;;33.00;32.00;;;;;10.12;61.73;99821.72;5055786;28;8839;-76
2022/11/25 09:53:42;;;;;;;;;32.20;30.60;;;;;10.26;61.55;99822.66;5071453;28;8865;-78
2022/11/25 09:56:19;;;;;;;;;31.40;27.80;;;;;10.18;61.62;99829.56;5043482;28;8874;-76
2022/11/25 09:58:52;;;;;;;;;27.80;24.40;;;;;9.86;62.54;99821.56;5079522;28;8855;-76
2022/11/25 10:01:25;;;;;;;;;22.00;22.00;;;;;9.87;62.35;99820.72;5089786;28;8825;-76
2022/11/25 10:03:58;;;;;;;;;23.80;23.20;;;;;9.83;63.21;99818.91;5089882;28;8839;-75
2022/11/25 10:06:29;;;;;;;;;28.80;26.20;;;;;9.92;63.40;99816.38;5098467;28;8966;-77
2022/11/25 10:09:01;;;;;;;;;27.60;27.20;;;;;9.83;63.83;99814.59;5089133;28;8963;-76
2022/11/25 10:11:42;;;;;;;;;32.20;30.00;;;;;9.99;63.46;99815.56;5090199;28;8998;-75
2022/11/25 10:14:21;;;;;;;;;29.60;28.00;;;;;10.15;63.32;99817.41;5089191;28;8840;-78
2022/11/25 10:16:52;;;;;;;;;27.60;27.40;;;;;10.16;63.16;99818.28;5085646;28;8856;-76
2022/11/25 10:19:31;;;;;;;;;24.80;23.40;;;;;10.28;62.79;99814.84;5087194;28;8846;-77
2022/11/25 10:22:10;;;;;;;;;21.00;21.00;;;;;10.33;62.04;99815.78;5088503;28;8924;-76
2022/11/25 10:24:40;;;;;;;;;24.20;20.80;;;;;10.08;61.93;99820.84;5105222;28;8852;-76
2022/11/25 10:27:18;;;;;;;;;33.00;27.60;;;;;10.31;60.82;99814.91;5054344;28;8968;-78
2022/11/25 10:29:54;;;;;;;;;21.60;21.00;;;;;10.29;61.08;99808.78;5081040;28;9548;-75
2022/11/25 10:32:25;;;;;;;;;14.60;14.60;;;;;10.35;60.48;99814.06;5092214;28;8896;-76
2022/11/25 10:34:58;;;;;;;;;22.80;21.80;;;;;9.99;62.20;99819.91;5104315;28;8848;-76
2022/11/25 10:37:31;;;;;;;;;18.80;17.60;;;;;9.94;62.71;99812.94;5121543;28;8870;-78
2022/11/25 10:40:01;;;;;;;;;17.80;17.80;;;;;10.01;62.73;99812.97;5108257;28;8992;-78
2022/11/25 10:42:31;;;;;;;;;23.20;23.20;;;;;9.99;62.96;99815.56;5110424;28;8844;-80
2022/11/25 10:45:01;;;;;;;;;25.80;24.80;;;;;10.12;62.18;99819.13;5041249;28;8881;-78
2022/11/25 10:47:36;;;;;;;;;20.00;19.40;;;;;9.72;62.52;99826.69;5108515;28;8863;-76
2022/11/25 10:50:27;;;;;;;;;24.40;23.00;;;;;10.01;62.34;99821.66;5108281;28;8861;-78
2022/11/25 10:53:00;;;;;;;;;28.00;24.80;;;;;10.48;61.52;99818.47;5111663;27;8853;-75
2022/11/25 10:55:32;;;;;;;;;34.00;28.20;;;;;10.45;61.40;99823.69;5072351;28;8948;-78
2022/11/25 10:58:25;;;;;;;;;33.20;30.40;;;;;10.27;61.25;99826.16;5104361;28;8884;-77
2022/11/25 11:01:03;;;;;;;;;25.60;18.80;;;;;10.07;62.06;99826.03;5089293;28;8854;-78
2022/11/25 11:03:32;;;;;;;;;32.00;27.80;;;;;10.32;62.25;99824.47;5090243;28;8871;-77
2022/11/25 11:06:01;;;;;;;;;20.00;20.00;;;;;10.23;62.24;99821.78;5090163;28;8839;-77
2022/11/25 11:08:38;;;;;;;;;37.60;32.80;;;;;10.20;62.56;99819.16;5070952;28;9585;-76
2022/11/25 11:11:18;;;;;;;;;27.40;26.80;;;;;10.52;61.88;99820.22;5076187;28;8969;-75
2022/11/25 11:13:47;;;;;;;;;26.40;24.40;;;;;10.28;62.12;99817.47;5092198;28;8863;-76
2022/11/25 11:16:29;;;;;;;;;30.00;28.60;;;;;10.85;61.75;99802.06;5122131;27;8852;-79
2022/11/25 11:18:58;;;;;;;;;12.20;10.80;;;;;11.39;59.09;99796.91;5089684;28;8890;-76
2022/11/25 11:21:31;;;;;;;;;20.80;20.00;;;;;11.17;58.44;99809.06;5089079;28;8871;-77
2022/11/25 11:24:01;;;;;;;;;18.60;17.40;;;;;11.75;57.34;99805.59;5067852;28;9021;-78
2022/11/25 11:26:34;;;;;;;;;19.60;17.60;;;;;11.56;57.65;99810.84;5076398;28;8924;-78
2022/11/25 11:29:06;;;;;;;;;19.80;18.80;;;;;11.36;58.07;99808.25;5110408;28;8866;-77
2022/11/25 11:31:46;;;;;;;;;17.60;16.00;;;;;11.22;58.84;99807.34;5093726;28;8840;-78
2022/11/25 11:34:35;;;;;;;;;14.20;13.80;;;;;11.25;58.37;99803.00;5087303;28;8864;-79
2022/11/25 11:37:29;;;;;;;;;23.20;21.00;;;;;11.26;58.13;99802.13;5101930;28;8852;-79
2022/11/25 11:40:22;;;;;;;;;14.40;14.40;;;;;11.17;58.64;99798.63;5071097;28;8855;-76
2022/11/25 11:43:11;;;;;;;;;19.60;16.40;;;;;11.46;57.26;99796.91;5084187;28;8847;-77
2022/11/25 11:45:52;;;;;;;;;17.40;15.60;;;;;11.04;58.74;99789.91;5090534;28;8906;-81
2022/11/25 11:48:27;;;;;;;;;25.00;22.20;;;;;11.11;58.70;99796.88;5088244;28;9585;-79
2022/11/25 11:51:07;;;;;;;;;18.40;18.40;;;;;10.99;59.44;99795.13;5063869;28;9596;-76
2022/11/25 11:53:48;;;;;;;;;13.20;13.20;;;;;10.71;60.92;99800.28;5086558;28;8856;-80
2022/11/25 11:56:22;;;;;;;;;21.60;19.80;;;;;11.07;60.11;99789.94;5073903;28;8850;-77
2022/11/25 11:59:27;;;;;;;;;21.00;19.80;;;;;11.05;59.85;99797.75;5081092;28;8846;-80
2022/11/25 12:02:12;;;;;;;;;23.20;21.00;;;;;10.99;60.24;99797.75;5080049;28;9065;-77
2022/11/25 12:04:46;;;;;;;;;20.60;18.80;;;;;10.96;60.75;99781.22;5087936;28;8832;-76